createdAt,value
2022-08-23T00:02:23.233Z,20.37
2022-08-23T00:05:07.813Z,20.24
2022-08-23T00:07:42.453Z,20.45
2022-08-23T00:10:11.473Z,19.99
2022-08-23T00:12:38.557Z,20.19
2022-08-23T00:15:07.221Z,20.44
2022-08-23T00:17:35.237Z,20.25
2022-08-23T00:20:04.973Z,20.45
2022-08-23T00:22:32.083Z,20.04
2022-08-23T00:24:59.906Z,20.28
2022-08-23T00:27:27.129Z,20.42
2022-08-23T00:29:55.181Z,19.96
2022-08-23T00:32:32.998Z,20.08
2022-08-23T00:35:00.831Z,20.14
2022-08-23T00:37:29.136Z,19.95
2022-08-23T00:39:56.251Z,20.04
2022-08-23T00:42:56.516Z,20.21
2022-08-23T00:46:07.450Z,20.07
2022-08-23T00:48:34.931Z,19.90
2022-08-23T00:51:15.833Z,20.04
2022-08-23T00:53:47.425Z,19.97
2022-08-23T00:56:16.460Z,19.88
2022-08-23T00:58:43.510Z,19.36
2022-08-23T01:01:10.523Z,19.99
2022-08-23T01:03:39.189Z,19.58
2022-08-23T01:06:14.794Z,19.93
2022-08-23T01:08:50.276Z,19.97
2022-08-23T01:11:21.864Z,19.96
2022-08-23T01:13:51.264Z,19.81
2022-08-23T01:16:33.879Z,19.90
2022-08-23T01:19:03.010Z,19.52
2022-08-23T01:21:41.225Z,18.85
2022-08-23T01:24:08.433Z,19.77
2022-08-23T01:26:35.418Z,19.81
2022-08-23T01:29:05.588Z,19.89
2022-08-23T01:31:33.472Z,19.80
2022-08-23T01:34:03.835Z,19.88
2022-08-23T01:36:30.963Z,19.51
2022-08-23T01:38:57.908Z,19.63
2022-08-23T01:41:24.887Z,19.69
2022-08-23T01:43:52.092Z,19.26
2022-08-23T01:46:20.705Z,19.84
2022-08-23T01:48:48.882Z,19.57
2022-08-23T01:51:18.718Z,19.82
2022-08-23T01:53:46.685Z,19.82
2022-08-23T01:56:14.528Z,19.69
2022-08-23T01:58:41.526Z,19.81
2022-08-23T02:01:08.477Z,19.67
2022-08-23T02:03:37.308Z,19.80
2022-08-23T02:06:05.142Z,19.81
2022-08-23T02:08:50.517Z,19.48
2022-08-23T02:11:22.263Z,19.71
2022-08-23T02:13:50.254Z,19.15
2022-08-23T02:16:29.035Z,19.16
2022-08-23T02:18:56.687Z,19.35
2022-08-23T02:21:24.020Z,18.95
2022-08-23T02:23:53.667Z,19.57
2022-08-23T02:26:20.829Z,19.35
2022-08-23T02:28:58.680Z,19.25
2022-08-23T02:31:26.291Z,19.32
2022-08-23T02:33:53.934Z,19.51
2022-08-23T02:38:49.925Z,19.50
2022-08-23T02:41:17.654Z,19.52
2022-08-23T02:43:44.785Z,19.69
2022-08-23T02:46:12.050Z,19.36
2022-08-23T02:48:39.250Z,19.34
2022-08-23T02:51:08.624Z,19.46
2022-08-23T02:53:35.923Z,19.70
2022-08-23T02:56:05.965Z,19.52
2022-08-23T02:58:45.848Z,19.49
2022-08-23T03:01:25.284Z,19.07
2022-08-23T03:03:52.478Z,19.27
2022-08-23T03:06:25.062Z,19.35
2022-08-23T03:08:54.652Z,19.29
2022-08-23T03:11:22.496Z,19.66
2022-08-23T03:13:50.363Z,19.65
2022-08-23T03:16:18.389Z,19.45
2022-08-23T03:18:45.652Z,19.63
2022-08-23T03:21:13.075Z,19.39
2022-08-23T03:23:40.278Z,19.12
2022-08-23T03:26:08.993Z,19.21
2022-08-23T03:28:37.033Z,19.53
2022-08-23T03:31:04.677Z,19.14
2022-08-23T03:33:34.289Z,19.25
2022-08-23T03:36:03.073Z,19.37
2022-08-23T03:38:30.485Z,19.55
2022-08-23T03:40:57.495Z,19.48
2022-08-23T03:43:24.546Z,19.21
2022-08-23T03:45:51.809Z,19.50
2022-08-23T03:48:18.732Z,19.51
2022-08-23T03:50:45.671Z,19.38
2022-08-23T03:53:13.436Z,19.05
2022-08-23T03:55:42.585Z,19.38
2022-08-23T03:58:10.932Z,19.16
2022-08-23T04:00:38.334Z,19.43
2022-08-23T04:03:05.329Z,19.31
2022-08-23T04:05:32.723Z,19.16
2022-08-23T04:08:02.784Z,19.43
2022-08-23T04:10:30.507Z,19.42
2022-08-23T04:12:57.762Z,19.08
2022-08-23T04:15:25.078Z,19.31
2022-08-23T04:17:52.074Z,19.24
2022-08-23T04:20:19.221Z,19.34
2022-08-23T04:22:46.548Z,19.27
2022-08-23T04:25:29.927Z,19.29
2022-08-23T04:28:01.203Z,19.22
2022-08-23T04:30:28.618Z,19.45
2022-08-23T04:32:55.619Z,19.28
2022-08-23T04:35:23.907Z,19.02
2022-08-23T04:37:51.177Z,19.36
2022-08-23T04:40:37.917Z,19.44
2022-08-23T04:43:05.055Z,18.96
2022-08-23T04:45:32.781Z,19.36
2022-08-23T04:48:00.524Z,19.46
2022-08-23T04:50:27.643Z,19.02
2022-08-23T04:52:54.663Z,19.19
2022-08-23T04:55:22.369Z,19.30
2022-08-23T04:57:49.417Z,19.43
2022-08-23T05:00:19.253Z,18.85
2022-08-23T05:02:46.894Z,19.25
2022-08-23T05:05:14.047Z,19.22
2022-08-23T05:07:42.140Z,18.98
2022-08-23T05:10:13.057Z,19.06
2022-08-23T05:12:40.581Z,19.10
2022-08-23T05:15:08.840Z,19.00
2022-08-23T05:17:36.454Z,19.31
2022-08-23T05:20:04.173Z,18.26
2022-08-23T05:22:33.982Z,19.28
2022-08-23T05:25:00.958Z,19.27
2022-08-23T05:27:27.949Z,19.07
2022-08-23T05:29:55.037Z,19.39
2022-08-23T05:32:22.920Z,19.05
2022-08-23T05:34:49.846Z,19.11
2022-08-23T05:37:16.875Z,19.37
2022-08-23T05:39:43.854Z,18.42
2022-08-23T05:42:13.616Z,19.21
2022-08-23T05:44:40.672Z,18.90
2022-08-23T05:47:10.507Z,19.08
2022-08-23T05:49:39.408Z,19.24
2022-08-23T05:52:08.587Z,19.09
2022-08-23T05:54:35.780Z,19.04
2022-08-23T05:57:03.539Z,19.37
2022-08-23T05:59:30.793Z,18.79
2022-08-23T06:01:57.733Z,19.11
2022-08-23T06:04:24.734Z,19.11
2022-08-23T06:06:51.828Z,19.39
2022-08-23T06:09:19.480Z,19.44
2022-08-23T06:11:47.818Z,19.19
2022-08-23T06:14:15.421Z,19.08
2022-08-23T06:16:45.820Z,19.22
2022-08-23T06:19:13.295Z,19.25
2022-08-23T06:21:40.398Z,19.55
2022-08-23T06:24:07.561Z,19.52
2022-08-23T06:26:36.992Z,19.24
2022-08-23T06:29:08.417Z,19.49
2022-08-23T06:31:48.028Z,19.38
2022-08-23T06:34:27.121Z,19.03
2022-08-23T06:36:58.989Z,19.58
2022-08-23T06:39:27.795Z,19.15
2022-08-23T06:42:00.752Z,19.20
2022-08-23T06:44:28.598Z,19.67
2022-08-23T06:46:58.721Z,19.86
2022-08-23T06:49:25.983Z,19.93
2022-08-23T06:51:54.510Z,19.87
2022-08-23T06:54:23.369Z,19.78
2022-08-23T06:56:54.789Z,20.01
2022-08-23T06:59:23.341Z,19.60
2022-08-23T07:01:53.621Z,19.90
2022-08-23T07:04:26.552Z,20.15
2022-08-23T07:06:53.528Z,19.88
2022-08-23T07:09:20.528Z,20.08
2022-08-23T07:11:48.372Z,20.26
2022-08-23T07:14:17.030Z,19.65
2022-08-23T07:16:48.203Z,20.23
2022-08-23T07:19:15.974Z,19.66
2022-08-23T07:21:43.303Z,20.19
2022-08-23T07:24:11.547Z,20.32
2022-08-23T07:26:39.627Z,20.24
2022-08-23T07:29:07.615Z,20.42
2022-08-23T07:31:38.420Z,20.66
2022-08-23T07:34:05.653Z,20.96
2022-08-23T07:36:33.462Z,20.92
2022-08-23T07:39:01.016Z,20.94
2022-08-23T07:41:32.918Z,20.98
2022-08-23T07:44:04.298Z,20.46
2022-08-23T07:46:31.986Z,21.48
2022-08-23T07:49:04.229Z,21.62
2022-08-23T07:51:32.116Z,21.56
2022-08-23T07:53:59.641Z,21.59
2022-08-23T07:56:26.639Z,21.74
2022-08-23T07:58:53.690Z,21.99
2022-08-23T08:01:22.944Z,21.92
2022-08-23T08:03:52.649Z,21.94
2022-08-23T08:06:22.598Z,22.13
2022-08-23T08:08:49.953Z,21.91
2022-08-23T08:11:18.722Z,22.08
2022-08-23T08:13:46.945Z,22.22
2022-08-23T08:16:24.050Z,22.17
2022-08-23T08:18:51.298Z,22.41
2022-08-23T08:21:18.658Z,22.38
2022-08-23T08:23:45.835Z,22.88
2022-08-23T08:26:14.795Z,22.78
2022-08-23T08:28:42.050Z,22.73
2022-08-23T08:31:09.842Z,22.67
2022-08-23T08:33:36.843Z,22.39
2022-08-23T08:36:04.941Z,22.92
2022-08-23T08:38:38.844Z,22.29
2022-08-23T08:41:18.238Z,22.84
2022-08-23T08:44:04.128Z,23.44
2022-08-23T08:46:39.995Z,23.47
2022-08-23T08:49:08.052Z,23.20
2022-08-23T08:51:47.249Z,23.25
2022-08-23T08:54:15.569Z,23.36
2022-08-23T08:56:42.622Z,23.16
2022-08-23T08:59:24.032Z,23.35
2022-08-23T09:01:51.548Z,23.37
2022-08-23T09:04:18.703Z,23.41
2022-08-23T09:07:11.378Z,23.32
2022-08-23T09:10:19.921Z,23.87
2022-08-23T09:13:24.851Z,23.95
2022-08-23T09:15:57.419Z,24.03
2022-08-23T09:18:24.465Z,23.90
2022-08-23T09:20:53.720Z,24.06
2022-08-23T09:23:26.438Z,24.30
2022-08-23T09:26:04.021Z,24.38
2022-08-23T09:28:35.801Z,24.82
2022-08-23T09:31:04.597Z,23.94
2022-08-23T09:33:43.109Z,24.93
2022-08-23T09:36:17.119Z,25.10
2022-08-23T09:38:53.057Z,24.96
2022-08-23T09:41:23.486Z,25.13
2022-08-23T09:43:50.992Z,25.19
2022-08-23T09:46:37.848Z,25.27
2022-08-23T09:49:30.483Z,25.37
2022-08-23T09:52:00.668Z,25.40
2022-08-23T09:54:37.901Z,25.20
2022-08-23T09:57:11.074Z,25.59
2022-08-23T09:59:51.917Z,25.68
2022-08-23T10:02:22.038Z,25.87
2022-08-23T10:05:22.416Z,25.72
2022-08-23T10:08:00.758Z,25.93
2022-08-23T10:10:50.833Z,25.66
2022-08-23T10:13:20.731Z,25.99
2022-08-23T10:16:13.672Z,26.00
2022-08-23T10:19:09.650Z,26.16
2022-08-23T10:22:11.674Z,26.13
2022-08-23T10:25:40.490Z,26.17
2022-08-23T10:29:03.572Z,26.17
2022-08-23T10:31:57.971Z,25.88
2022-08-23T10:34:50.715Z,26.07
2022-08-23T10:37:43.507Z,25.91
2022-08-23T10:40:36.241Z,26.26
2022-08-23T10:43:26.679Z,26.30
2022-08-23T10:45:58.320Z,26.31
2022-08-23T10:49:03.009Z,26.30
2022-08-23T10:51:51.803Z,26.16
2022-08-23T10:54:35.151Z,26.25
2022-08-23T10:57:06.402Z,25.97
2022-08-23T10:59:33.455Z,26.34
2022-08-23T11:02:51.201Z,26.41
2022-08-23T11:05:27.255Z,26.08
2022-08-23T11:08:06.328Z,26.43
2022-08-23T11:10:39.431Z,26.47
2022-08-23T11:13:15.992Z,26.52
2022-08-23T11:16:00.857Z,26.58
2022-08-23T11:18:34.139Z,26.63
2022-08-23T11:21:40.716Z,26.72
2022-08-23T11:24:13.485Z,26.82
2022-08-23T11:27:06.027Z,26.92
2022-08-23T11:29:34.348Z,26.68
2022-08-23T11:32:07.068Z,27.08
2022-08-23T11:34:54.462Z,26.61
2022-08-23T11:37:22.094Z,27.20
2022-08-23T11:39:58.654Z,27.20
2022-08-23T11:42:27.149Z,27.19
2022-08-23T11:44:54.095Z,27.18
2022-08-23T11:47:41.946Z,26.68
2022-08-23T11:50:38.536Z,27.02
2022-08-23T11:53:26.883Z,26.81
2022-08-23T11:56:12.019Z,27.06
2022-08-23T11:58:52.690Z,26.63
2022-08-23T12:01:29.075Z,26.63
2022-08-23T12:04:00.627Z,26.69
2022-08-23T12:06:50.569Z,27.11
2022-08-23T12:09:24.185Z,27.07
2022-08-23T12:11:56.757Z,27.21
2022-08-23T12:14:36.516Z,27.24
2022-08-23T12:17:28.644Z,27.28
2022-08-23T12:20:01.706Z,27.34
2022-08-23T12:22:31.074Z,27.39
2022-08-23T12:25:05.445Z,27.11
2022-08-23T12:27:45.236Z,27.12
2022-08-23T12:30:22.809Z,27.31
2022-08-23T12:32:56.835Z,27.64
2022-08-23T12:35:48.678Z,27.66
2022-08-23T12:38:18.077Z,27.72
2022-08-23T12:40:48.491Z,27.80
2022-08-23T12:43:30.114Z,27.86
2022-08-23T12:46:00.145Z,27.84
2022-08-23T12:48:31.900Z,27.94
2022-08-23T12:51:06.662Z,27.67
2022-08-23T12:53:45.083Z,27.48
2022-08-23T12:56:32.018Z,27.58
2022-08-23T12:59:05.617Z,27.75
2022-08-23T13:01:35.836Z,27.49
2022-08-23T13:04:11.552Z,27.53
2022-08-23T13:06:47.010Z,27.62
2022-08-23T13:09:30.741Z,26.94
2022-08-23T13:11:58.582Z,27.54
2022-08-23T13:14:33.581Z,27.49
2022-08-23T13:17:18.048Z,27.70
2022-08-23T13:19:47.043Z,27.38
2022-08-23T13:22:22.301Z,27.67
2022-08-23T13:25:28.267Z,27.65
2022-08-23T13:27:54.670Z,27.15
2022-08-23T13:30:38.545Z,27.27
2022-08-23T13:33:08.505Z,27.59
2022-08-23T13:35:38.838Z,27.59
2022-08-23T13:38:08.686Z,27.59
2022-08-23T13:41:04.635Z,27.62
2022-08-23T13:43:36.734Z,27.71
2022-08-23T13:46:22.244Z,27.35
2022-08-23T13:49:01.747Z,26.53
2022-08-23T13:51:37.012Z,28.00
2022-08-23T13:54:09.538Z,27.85
2022-08-23T13:57:04.727Z,28.18
2022-08-23T13:59:40.010Z,28.27
2022-08-23T14:02:12.367Z,28.03
2022-08-23T14:04:39.410Z,27.71
2022-08-23T14:07:06.784Z,28.22
2022-08-23T14:09:35.441Z,28.30
2022-08-23T14:12:23.259Z,27.94
2022-08-23T14:14:50.253Z,28.44
2022-08-23T14:17:20.483Z,27.51
2022-08-23T14:22:36.903Z,28.12
2022-08-23T14:25:04.866Z,28.54
2022-08-23T14:27:31.993Z,28.06
2022-08-23T14:29:59.492Z,28.39
2022-08-23T14:32:26.618Z,28.40
2022-08-23T14:34:53.613Z,28.54
2022-08-23T14:38:00.635Z,27.94
2022-08-23T14:40:09.512Z,28.53
2022-08-23T14:42:36.553Z,28.09
2022-08-23T14:45:03.841Z,28.48
2022-08-23T14:47:31.728Z,28.58
2022-08-23T14:49:58.955Z,28.07
2022-08-23T14:52:25.942Z,28.44
2022-08-23T14:54:53.086Z,28.30
2022-08-23T14:57:20.025Z,28.53
2022-08-23T14:59:46.953Z,28.57
2022-08-23T15:02:22.249Z,28.75
2022-08-23T15:04:49.268Z,28.23
2022-08-23T15:07:18.968Z,28.60
2022-08-23T15:09:51.144Z,28.57
2022-08-23T15:15:12.345Z,28.93
2022-08-23T15:17:45.812Z,28.65
2022-08-23T15:20:12.926Z,28.99
2022-08-23T15:22:40.062Z,28.61
2022-08-23T15:25:12.412Z,28.77
2022-08-23T15:27:39.690Z,28.48
2022-08-23T15:30:07.538Z,28.85
2022-08-23T15:32:35.051Z,28.97
2022-08-23T15:35:05.123Z,28.69
2022-08-23T15:37:32.566Z,28.67
2022-08-23T15:40:00.523Z,28.98
2022-08-23T15:42:33.319Z,28.85
2022-08-23T15:45:02.172Z,28.71
2022-08-23T15:47:36.173Z,28.58
2022-08-23T15:50:16.834Z,28.24
2022-08-23T15:52:43.858Z,28.88
2022-08-23T15:55:11.095Z,29.05
2022-08-23T15:57:44.649Z,28.50
2022-08-23T16:00:12.855Z,28.86
2022-08-23T16:03:04.454Z,28.40
2022-08-23T16:05:26.977Z,28.45
2022-08-23T16:07:58.034Z,28.42
2022-08-23T16:10:30.335Z,25.82
2022-08-23T16:13:04.814Z,26.63
2022-08-23T16:15:33.295Z,26.10
2022-08-23T16:18:00.790Z,28.25
2022-08-23T16:20:27.958Z,26.02
2022-08-23T16:22:54.966Z,26.34
2022-08-23T16:25:22.154Z,27.68
2022-08-23T16:27:49.368Z,26.63
2022-08-23T16:30:21.598Z,25.95
2022-08-23T16:32:49.100Z,25.64
2022-08-23T16:35:18.498Z,27.11
2022-08-23T16:37:45.447Z,28.50
2022-08-23T16:40:13.102Z,27.79
2022-08-23T16:42:40.305Z,27.59
2022-08-23T16:45:08.049Z,28.04
2022-08-23T16:47:38.299Z,27.92
2022-08-23T16:50:05.724Z,28.32
2022-08-23T16:52:34.572Z,28.25
2022-08-23T16:55:06.781Z,27.93
2022-08-23T16:57:33.908Z,28.37
2022-08-23T17:00:02.961Z,28.33
2022-08-23T17:02:35.088Z,27.62
2022-08-23T17:05:02.867Z,27.68
2022-08-23T17:07:30.935Z,28.24
2022-08-23T17:09:57.949Z,28.21
2022-08-23T17:12:24.905Z,28.11
2022-08-23T17:14:52.233Z,28.13
2022-08-23T17:17:19.192Z,28.10
2022-08-23T17:19:46.175Z,26.49
2022-08-23T17:22:13.728Z,28.00
2022-08-23T17:24:40.913Z,27.70
2022-08-23T17:27:07.959Z,27.08
2022-08-23T17:29:37.608Z,27.40
2022-08-23T17:32:08.357Z,27.02
2022-08-23T17:34:35.314Z,27.72
2022-08-23T17:37:02.742Z,27.65
2022-08-23T17:39:35.770Z,27.26
2022-08-23T17:42:03.097Z,27.45
2022-08-23T17:44:30.653Z,27.35
2022-08-23T17:46:57.604Z,26.34
2022-08-23T17:49:25.329Z,24.72
2022-08-23T17:51:52.541Z,26.33
2022-08-23T17:54:19.493Z,26.75
2022-08-23T17:56:50.493Z,26.95
2022-08-23T17:59:19.118Z,26.64
2022-08-23T18:01:46.192Z,26.69
2022-08-23T18:04:13.179Z,26.18
2022-08-23T18:06:40.822Z,26.29
2022-08-23T18:09:07.973Z,25.99
2022-08-23T18:11:35.194Z,25.95
2022-08-23T18:14:05.405Z,26.48
2022-08-23T18:16:35.646Z,26.30
2022-08-23T18:19:11.196Z,26.20
2022-08-23T18:21:40.886Z,25.52
2022-08-23T18:24:09.546Z,25.96
2022-08-23T18:26:55.615Z,25.20
2022-08-23T18:29:23.615Z,26.17
2022-08-23T18:31:50.652Z,25.62
2022-08-23T18:34:17.823Z,25.33
2022-08-23T18:36:45.074Z,25.61
2022-08-23T18:39:13.121Z,25.95
2022-08-23T18:41:40.885Z,24.70
2022-08-23T18:44:08.576Z,25.58
2022-08-23T18:46:36.785Z,25.77
2022-08-23T18:49:04.145Z,25.57
2022-08-23T18:51:31.857Z,25.65
2022-08-23T18:53:59.283Z,25.77
2022-08-23T18:56:26.486Z,25.75
2022-08-23T18:58:53.835Z,25.58
2022-08-23T19:01:28.055Z,25.71
2022-08-23T19:03:56.122Z,24.58
2022-08-23T19:06:23.641Z,25.42
2022-08-23T19:08:52.021Z,25.33
2022-08-23T19:11:20.112Z,23.49
2022-08-23T19:13:47.590Z,25.03
2022-08-23T19:16:15.650Z,24.55
2022-08-23T19:18:44.949Z,25.07
2022-08-23T19:21:15.561Z,25.11
2022-08-23T19:23:43.339Z,25.33
2022-08-23T19:26:11.255Z,23.99
2022-08-23T19:28:38.579Z,24.61
2022-08-23T19:31:05.810Z,25.34
2022-08-23T19:33:33.190Z,25.08
2022-08-23T19:36:00.434Z,25.26
2022-08-23T19:38:27.987Z,24.60
2022-08-23T19:40:56.272Z,25.00
2022-08-23T19:43:23.329Z,24.87
2022-08-23T19:45:51.410Z,24.85
2022-08-23T19:48:19.456Z,24.91
2022-08-23T19:50:47.487Z,24.82
2022-08-23T19:53:14.555Z,24.48
2022-08-23T19:55:43.365Z,24.56
2022-08-23T19:58:13.119Z,24.71
2022-08-23T20:00:40.329Z,24.64
2022-08-23T20:03:07.446Z,25.04
2022-08-23T20:05:34.466Z,24.71
2022-08-23T20:08:01.851Z,24.77
2022-08-23T20:10:29.093Z,24.85
2022-08-23T20:12:56.105Z,24.65
2022-08-23T20:15:23.221Z,24.37
2022-08-23T20:17:50.162Z,24.36
2022-08-23T20:20:17.118Z,24.65
2022-08-23T20:23:03.131Z,24.54
2022-08-23T20:25:30.833Z,24.80
2022-08-23T20:27:57.965Z,24.52
2022-08-23T20:30:25.078Z,24.74
2022-08-23T20:32:52.073Z,24.11
2022-08-23T20:35:19.098Z,24.59
2022-08-23T20:37:46.134Z,24.48
2022-08-23T20:40:14.756Z,24.34
2022-08-23T20:42:41.916Z,24.50
2022-08-23T20:45:09.280Z,24.62
2022-08-23T20:47:36.679Z,24.76
2022-08-23T20:50:04.058Z,24.21
2022-08-23T20:52:34.555Z,24.31
2022-08-23T20:55:02.284Z,24.40
2022-08-23T20:57:38.194Z,24.45
2022-08-23T21:00:07.446Z,24.64
2022-08-23T21:02:34.744Z,24.38
2022-08-23T21:05:01.827Z,24.35
2022-08-23T21:07:33.400Z,24.30
2022-08-23T21:10:06.095Z,24.36
2022-08-23T21:12:33.385Z,24.48
2022-08-23T21:15:00.796Z,24.52
2022-08-23T21:17:27.746Z,24.44
2022-08-23T21:19:54.735Z,24.23
2022-08-23T21:22:22.087Z,24.36
2022-08-23T21:24:49.838Z,24.02
2022-08-23T21:27:17.475Z,24.35
2022-08-23T21:29:44.484Z,24.51
2022-08-23T21:32:11.444Z,24.23
2022-08-23T21:34:38.467Z,23.89
2022-08-23T21:37:06.196Z,24.18
2022-08-23T21:39:33.153Z,24.30
2022-08-23T21:42:14.204Z,24.16
2022-08-23T21:44:42.271Z,23.38
2022-08-23T21:47:10.431Z,24.35
2022-08-23T21:49:37.691Z,23.91
2022-08-23T21:52:05.112Z,23.85
2022-08-23T21:54:32.109Z,24.01
2022-08-23T21:56:59.350Z,23.74
2022-08-23T21:59:26.997Z,24.25
2022-08-23T22:01:54.074Z,24.07
2022-08-23T22:04:21.192Z,23.61
2022-08-23T22:06:48.341Z,23.80
2022-08-23T22:09:20.729Z,24.19
2022-08-23T22:11:55.077Z,23.87
2022-08-23T22:14:24.164Z,23.19
2022-08-23T22:16:55.374Z,24.11
2022-08-23T22:19:22.730Z,23.83
2022-08-23T22:21:51.372Z,23.91
2022-08-23T22:24:20.072Z,23.87
2022-08-23T22:26:50.598Z,23.47
2022-08-23T22:29:18.391Z,23.24
2022-08-23T22:31:47.734Z,23.84
2022-08-23T22:34:14.873Z,23.70
2022-08-23T22:36:42.142Z,23.63
2022-08-23T22:39:09.177Z,23.74
2022-08-23T22:41:37.189Z,23.36
2022-08-23T22:44:04.516Z,23.74
2022-08-23T22:46:33.724Z,23.56
2022-08-23T22:49:01.817Z,23.40
2022-08-23T22:51:31.543Z,23.67
2022-08-23T22:54:02.117Z,23.60
2022-08-23T22:56:32.122Z,23.52
2022-08-23T22:58:59.911Z,23.17
2022-08-23T23:01:32.708Z,23.28
2022-08-23T23:04:02.125Z,23.24
2022-08-23T23:06:30.625Z,23.48
2022-08-23T23:08:57.876Z,23.34
2022-08-23T23:11:25.177Z,23.17
2022-08-23T23:13:52.226Z,22.91
2022-08-23T23:16:22.749Z,23.39
2022-08-23T23:19:08.696Z,23.33
2022-08-23T23:21:38.412Z,23.28
2022-08-23T23:24:05.709Z,22.91
2022-08-23T23:26:33.135Z,23.23
2022-08-23T23:29:00.729Z,23.19
2022-08-23T23:31:27.739Z,23.16
2022-08-23T23:33:54.675Z,22.83
2022-08-23T23:36:22.173Z,23.09
2022-08-23T23:38:49.270Z,22.51
2022-08-23T23:41:16.275Z,22.74
2022-08-23T23:43:43.380Z,22.42
2022-08-23T23:46:12.377Z,22.48
2022-08-23T23:48:43.886Z,22.98
2022-08-23T23:51:13.605Z,22.55
2022-08-23T23:53:41.161Z,22.71
2022-08-23T23:56:09.677Z,22.21
2022-08-23T23:58:38.192Z,22.23
